createdAt,value
2018-12-05T00:00:19.500Z,0.00
2018-12-05T00:01:19.711Z,0.00
2018-12-05T00:02:19.808Z,0.00
2018-12-05T00:03:19.920Z,0.00
2018-12-05T00:04:20.049Z,0.00
2018-12-05T00:05:20.234Z,0.00
2018-12-05T00:06:20.349Z,0.00
2018-12-05T00:07:20.452Z,0.00
2018-12-05T00:08:20.539Z,0.00
2018-12-05T00:09:20.670Z,0.00
2018-12-05T00:10:20.786Z,0.00
2018-12-05T00:11:20.861Z,0.00
2018-12-05T00:12:20.995Z,0.00
2018-12-05T00:13:21.071Z,0.00
2018-12-05T00:14:21.166Z,0.00
2018-12-05T00:15:21.274Z,0.00
2018-12-05T00:16:21.393Z,0.00
2018-12-05T00:17:21.564Z,0.00
2018-12-05T00:18:21.652Z,0.00
2018-12-05T00:19:21.761Z,0.00
2018-12-05T00:20:21.898Z,249.00
2018-12-05T00:21:22.082Z,249.00
2018-12-05T00:22:22.196Z,65536.00
2018-12-05T00:23:22.301Z,65536.00
2018-12-05T00:24:22.411Z,65536.00
2018-12-05T00:25:22.519Z,65536.00
2018-12-05T00:26:22.621Z,65536.00
2018-12-05T00:27:22.728Z,65536.00
2018-12-05T00:28:22.831Z,65536.00
2018-12-05T00:29:22.601Z,65536.00
2018-12-05T00:30:23.167Z,65536.00
2018-12-05T00:31:23.275Z,65536.00
2018-12-05T00:32:23.376Z,65536.00
2018-12-05T00:33:23.456Z,65536.00
2018-12-05T00:34:23.567Z,65536.00
2018-12-05T00:35:23.776Z,65536.00
2018-12-05T00:36:23.785Z,65536.00
2018-12-05T00:37:23.585Z,65536.00
2018-12-05T00:38:24.027Z,65536.00
2018-12-05T00:39:24.304Z,65536.00
2018-12-05T00:40:24.667Z,249.00
2018-12-05T00:41:25.020Z,249.00
2018-12-05T00:42:25.313Z,258.00
2018-12-05T00:43:25.855Z,0.00
2018-12-05T00:44:25.656Z,0.00
2018-12-05T00:45:25.936Z,0.00
2018-12-05T00:46:26.209Z,0.00
2018-12-05T00:47:26.597Z,0.00
2018-12-05T00:48:26.855Z,0.00
2018-12-05T00:49:27.107Z,0.00
2018-12-05T00:50:27.597Z,0.00
2018-12-05T00:51:27.874Z,258.00
2018-12-05T00:52:28.166Z,249.00
2018-12-05T00:53:28.456Z,249.00
2018-12-05T00:54:28.723Z,249.00
2018-12-05T00:55:29.219Z,249.00
2018-12-05T00:56:29.003Z,249.00
2018-12-05T00:57:29.288Z,249.00
2018-12-05T00:58:29.569Z,249.00
2018-12-05T00:59:29.845Z,249.00
2018-12-05T01:00:30.101Z,258.00
2018-12-05T01:01:30.364Z,258.00
2018-12-05T01:02:30.769Z,258.00
2018-12-05T01:03:31.036Z,0.00
2018-12-05T01:04:31.298Z,0.00
2018-12-05T01:05:31.754Z,0.00
2018-12-05T01:06:32.030Z,0.00
2018-12-05T01:07:32.358Z,0.00
2018-12-05T01:08:32.647Z,0.00
2018-12-05T01:09:33.024Z,0.00
2018-12-05T01:10:33.574Z,0.00
2018-12-05T01:11:33.659Z,0.00
2018-12-05T01:12:33.801Z,0.00
2018-12-05T01:13:33.944Z,0.00
2018-12-05T01:14:34.054Z,0.00
2018-12-05T01:15:34.328Z,0.00
2018-12-05T01:16:34.441Z,0.00
2018-12-05T01:17:34.613Z,0.00
2018-12-05T01:18:34.855Z,0.00
2018-12-05T01:19:35.006Z,0.00
2018-12-05T01:20:35.120Z,0.00
2018-12-05T01:21:35.396Z,0.00
2018-12-05T01:22:35.555Z,0.00
2018-12-05T01:23:35.705Z,0.00
2018-12-05T01:24:35.827Z,0.00
2018-12-05T01:25:35.985Z,0.00
2018-12-05T01:26:36.067Z,0.00
2018-12-05T01:27:36.129Z,0.00
2018-12-05T01:28:36.211Z,0.00
2018-12-05T01:29:36.270Z,0.00
2018-12-05T01:30:36.372Z,0.00
2018-12-05T01:31:36.457Z,0.00
2018-12-05T01:32:36.604Z,0.00
2018-12-05T01:33:36.742Z,0.00
2018-12-05T01:34:36.826Z,0.00
2018-12-05T01:35:36.928Z,0.00
2018-12-05T01:36:37.048Z,0.00
2018-12-05T01:37:37.149Z,0.00
2018-12-05T01:38:37.253Z,0.00
2018-12-05T01:39:37.320Z,0.00
2018-12-05T01:40:37.400Z,0.00
2018-12-05T01:41:37.482Z,0.00
2018-12-05T01:42:37.570Z,0.00
2018-12-05T01:43:37.653Z,0.00
2018-12-05T01:44:37.675Z,0.00
2018-12-05T01:45:37.743Z,0.00
2018-12-05T01:46:37.852Z,0.00
2018-12-05T01:47:37.933Z,0.00
2018-12-05T01:48:38.009Z,0.00
2018-12-05T01:49:38.134Z,0.00
2018-12-05T01:50:38.216Z,0.00
2018-12-05T01:51:38.304Z,0.00
2018-12-05T01:52:38.402Z,0.00
2018-12-05T01:53:38.503Z,0.00
2018-12-05T01:54:38.605Z,0.00
2018-12-05T01:55:38.742Z,0.00
2018-12-05T01:56:38.846Z,0.00
2018-12-05T01:57:38.870Z,0.00
2018-12-05T01:58:38.965Z,0.00
2018-12-05T01:59:39.040Z,0.00
2018-12-05T02:00:38.953Z,0.00
2018-12-05T02:01:39.359Z,0.00
2018-12-05T02:02:39.665Z,0.00
2018-12-05T02:03:40.181Z,0.00
2018-12-05T02:04:40.462Z,0.00
2018-12-05T02:05:40.774Z,0.00
2018-12-05T02:06:41.169Z,0.00
2018-12-05T02:07:41.453Z,0.00
2018-12-05T02:08:41.853Z,0.00
2018-12-05T02:10:42.272Z,0.00
2018-12-05T02:11:42.560Z,0.00
2018-12-05T02:12:42.838Z,0.00
2018-12-05T02:13:43.149Z,0.00
2018-12-05T02:14:43.439Z,0.00
2018-12-05T02:15:43.724Z,0.00
2018-12-05T02:16:44.001Z,0.00
2018-12-05T02:17:44.288Z,0.00
2018-12-05T02:18:44.605Z,0.00
2018-12-05T02:19:44.917Z,0.00
2018-12-05T02:20:45.206Z,0.00
2018-12-05T02:21:45.690Z,0.00
2018-12-05T02:22:45.936Z,0.00
2018-12-05T02:23:46.223Z,0.00
2018-12-05T02:24:46.485Z,0.00
2018-12-05T02:25:46.777Z,0.00
2018-12-05T02:26:47.090Z,0.00
2018-12-05T02:27:47.390Z,0.00
2018-12-05T02:28:47.666Z,0.00
2018-12-05T02:29:48.654Z,0.00
2018-12-05T02:30:47.987Z,0.00
2018-12-05T02:32:48.606Z,0.00
2018-12-05T02:33:48.640Z,0.00
2018-12-05T02:34:48.733Z,0.00
2018-12-05T02:35:49.088Z,0.00
2018-12-05T02:36:49.122Z,0.00
2018-12-05T02:37:49.259Z,0.00
2018-12-05T02:38:49.367Z,0.00
2018-12-05T02:39:49.471Z,0.00
2018-12-05T02:40:49.603Z,0.00
2018-12-05T02:41:49.692Z,0.00
2018-12-05T02:42:49.810Z,0.00
2018-12-05T02:43:49.997Z,0.00
2018-12-05T02:44:50.112Z,0.00
2018-12-05T02:45:50.221Z,0.00
2018-12-05T02:46:50.353Z,0.00
2018-12-05T02:47:50.534Z,0.00
2018-12-05T02:48:50.773Z,0.00
2018-12-05T02:49:51.001Z,0.00
2018-12-05T02:50:51.125Z,0.00
2018-12-05T02:51:51.220Z,0.00
2018-12-05T02:52:51.375Z,0.00
2018-12-05T02:53:51.518Z,0.00
2018-12-05T02:54:51.583Z,0.00
2018-12-05T02:55:51.719Z,0.00
2018-12-05T02:56:51.947Z,0.00
2018-12-05T02:57:52.054Z,0.00
2018-12-05T02:59:52.161Z,0.00
2018-12-05T03:00:52.251Z,0.00
2018-12-05T03:01:52.360Z,0.00
2018-12-05T03:02:52.464Z,0.00
2018-12-05T03:03:52.307Z,0.00
2018-12-05T03:04:52.585Z,0.00
2018-12-05T03:05:53.172Z,0.00
2018-12-05T03:06:53.240Z,0.00
2018-12-05T03:07:53.327Z,0.00
2018-12-05T03:08:53.435Z,0.00
2018-12-05T03:09:53.549Z,0.00
2018-12-05T03:10:53.655Z,0.00
2018-12-05T03:11:53.770Z,0.00
2018-12-05T03:12:53.830Z,0.00
2018-12-05T03:13:53.972Z,0.00
2018-12-05T03:14:54.214Z,0.00
2018-12-05T03:15:54.201Z,0.00
2018-12-05T03:16:54.483Z,0.00
2018-12-05T03:17:54.750Z,0.00
2018-12-05T03:18:55.018Z,0.00
2018-12-05T03:19:55.282Z,0.00
2018-12-05T03:20:55.734Z,0.00
2018-12-05T03:21:55.983Z,0.00
2018-12-05T03:22:56.266Z,0.00
2018-12-05T03:23:56.506Z,0.00
2018-12-05T03:24:56.781Z,0.00
2018-12-05T03:25:57.140Z,0.00
2018-12-05T03:26:57.419Z,0.00
2018-12-05T03:28:57.736Z,0.00
2018-12-05T03:29:58.010Z,0.00
2018-12-05T03:30:58.255Z,0.00
2018-12-05T03:31:58.518Z,0.00
2018-12-05T03:32:58.787Z,0.00
2018-12-05T03:33:59.053Z,0.00
2018-12-05T03:34:59.516Z,0.00
2018-12-05T03:35:59.776Z,0.00
2018-12-05T03:37:00.046Z,0.00
2018-12-05T03:38:00.371Z,0.00
2018-12-05T03:39:00.847Z,0.00
2018-12-05T03:40:01.082Z,0.00
2018-12-05T03:41:01.741Z,0.00
2018-12-05T03:42:02.356Z,0.00
2018-12-05T03:43:02.358Z,0.00
2018-12-05T03:44:02.641Z,0.00
2018-12-05T03:45:03.130Z,0.00
2018-12-05T03:46:03.012Z,0.00
2018-12-05T03:47:03.593Z,0.00
2018-12-05T03:48:03.685Z,0.00
2018-12-05T03:49:03.768Z,0.00
2018-12-05T03:50:03.887Z,0.00
2018-12-05T03:51:03.977Z,0.00
2018-12-05T03:52:04.131Z,0.00
2018-12-05T03:53:04.374Z,0.00
2018-12-05T03:54:04.436Z,0.00
2018-12-05T03:55:04.546Z,0.00
2018-12-05T03:56:04.740Z,0.00
2018-12-05T03:57:04.870Z,0.00
2018-12-05T03:58:05.034Z,0.00
2018-12-05T03:59:05.260Z,0.00
2018-12-05T04:00:05.389Z,0.00
2018-12-05T04:01:05.533Z,0.00
2018-12-05T04:02:05.750Z,0.00
2018-12-05T04:03:05.791Z,0.00
2018-12-05T04:04:05.855Z,0.00
2018-12-05T04:05:06.002Z,0.00
2018-12-05T04:06:06.059Z,0.00
2018-12-05T04:07:06.223Z,0.00
2018-12-05T04:08:06.290Z,0.00
2018-12-05T04:09:06.378Z,0.00
2018-12-05T04:10:06.566Z,0.00
2018-12-05T04:11:06.658Z,0.00
2018-12-05T04:12:06.775Z,0.00
2018-12-05T04:13:06.874Z,0.00
2018-12-05T04:14:06.988Z,0.00
2018-12-05T04:15:07.040Z,0.00
2018-12-05T04:16:07.011Z,0.00
2018-12-05T04:17:07.588Z,0.00
2018-12-05T04:18:07.649Z,0.00
2018-12-05T04:19:07.717Z,0.00
2018-12-05T04:20:07.477Z,0.00
2018-12-05T04:21:08.041Z,0.00
2018-12-05T04:22:08.173Z,0.00
2018-12-05T04:23:08.001Z,0.00
2018-12-05T04:24:08.580Z,0.00
2018-12-05T04:25:08.642Z,0.00
2018-12-05T04:26:08.737Z,0.00
2018-12-05T04:27:08.520Z,0.00
2018-12-05T04:28:08.951Z,0.00
2018-12-05T04:29:09.346Z,0.00
2018-12-05T04:30:09.688Z,0.00
2018-12-05T04:31:09.987Z,0.00
2018-12-05T04:32:10.478Z,0.00
2018-12-05T04:33:10.795Z,0.00
2018-12-05T04:34:11.121Z,0.00
2018-12-05T04:35:11.569Z,0.00
2018-12-05T04:36:11.851Z,0.00
2018-12-05T04:37:12.132Z,0.00
2018-12-05T04:38:12.414Z,0.00
2018-12-05T04:39:12.717Z,0.00
2018-12-05T04:40:13.075Z,0.00
2018-12-05T04:41:13.358Z,0.00
2018-12-05T04:42:13.658Z,0.00
2018-12-05T04:43:13.954Z,0.00
2018-12-05T04:44:14.250Z,0.00
2018-12-05T04:45:14.854Z,0.00
2018-12-05T04:46:14.770Z,0.00
2018-12-05T04:47:15.047Z,0.00
2018-12-05T04:48:15.483Z,0.00
2018-12-05T04:50:15.656Z,0.00
2018-12-05T04:51:15.469Z,0.00
2018-12-05T04:52:15.739Z,0.00
2018-12-05T04:53:16.021Z,0.00
2018-12-05T04:54:16.285Z,0.00
2018-12-05T04:55:16.762Z,0.00
2018-12-05T04:56:17.037Z,0.00
2018-12-05T04:57:17.287Z,0.00
2018-12-05T04:58:17.601Z,0.00
2018-12-05T04:59:17.946Z,0.00
2018-12-05T05:00:18.543Z,0.00
2018-12-05T05:01:18.641Z,0.00
2018-12-05T05:02:18.749Z,0.00
2018-12-05T05:03:18.824Z,0.00
2018-12-05T05:04:18.923Z,0.00
2018-12-05T05:05:19.067Z,0.00
2018-12-05T05:06:19.186Z,0.00
2018-12-05T05:07:19.298Z,0.00
2018-12-05T05:08:19.463Z,0.00
2018-12-05T05:09:19.618Z,0.00
2018-12-05T05:10:19.796Z,0.00
2018-12-05T05:11:19.939Z,0.00
2018-12-05T05:12:20.096Z,0.00
2018-12-05T05:13:20.257Z,0.00
2018-12-05T05:14:20.422Z,0.00
2018-12-05T05:15:20.587Z,0.00
2018-12-05T05:16:20.733Z,0.00
2018-12-05T05:17:20.955Z,0.00
2018-12-05T05:18:21.096Z,0.00
2018-12-05T05:19:21.165Z,0.00
2018-12-05T05:20:21.235Z,0.00
2018-12-05T05:21:21.293Z,0.00
2018-12-05T05:22:21.354Z,0.00
2018-12-05T05:23:21.431Z,0.00
2018-12-05T05:24:21.795Z,0.00
2018-12-05T05:25:21.902Z,0.00
2018-12-05T05:26:22.024Z,0.00
2018-12-05T05:27:22.169Z,0.00
2018-12-05T05:28:22.255Z,0.00
2018-12-05T05:29:22.383Z,0.00
2018-12-05T05:30:22.445Z,0.00
2018-12-05T05:31:23.812Z,0.00
2018-12-05T05:32:22.607Z,0.00
2018-12-05T05:33:22.674Z,0.00
2018-12-05T05:34:22.778Z,0.00
2018-12-05T05:35:22.861Z,0.00
2018-12-05T05:36:22.945Z,0.00
2018-12-05T05:37:23.029Z,0.00
2018-12-05T05:38:23.124Z,0.00
2018-12-05T05:39:23.270Z,0.00
2018-12-05T05:40:23.461Z,0.00
2018-12-05T05:41:23.551Z,0.00
2018-12-05T05:42:23.661Z,0.00
2018-12-05T05:43:23.720Z,0.00
2018-12-05T05:44:23.824Z,0.00
2018-12-05T05:45:23.901Z,0.00
2018-12-05T05:46:23.856Z,0.00
2018-12-05T05:47:24.291Z,0.00
2018-12-05T05:48:24.563Z,0.00
2018-12-05T05:49:39.731Z,0.00
2018-12-05T05:50:25.252Z,0.00
2018-12-05T05:51:25.784Z,0.00
2018-12-05T05:52:25.553Z,0.00
2018-12-05T05:53:25.813Z,0.00
2018-12-05T05:54:26.129Z,0.00
2018-12-05T05:55:26.640Z,0.00
2018-12-05T05:56:26.924Z,0.00
2018-12-05T05:57:27.225Z,0.00
2018-12-05T05:58:27.524Z,0.00
2018-12-05T05:59:27.873Z,0.00
2018-12-05T06:00:28.162Z,0.00
2018-12-05T06:01:28.627Z,0.00
2018-12-05T06:02:28.921Z,0.00
2018-12-05T06:03:29.182Z,0.00
2018-12-05T06:04:29.447Z,0.00
2018-12-05T06:05:29.769Z,0.00
2018-12-05T06:06:33.747Z,0.00
2018-12-05T06:07:30.825Z,0.00
2018-12-05T06:08:30.609Z,0.00
2018-12-05T06:09:30.885Z,0.00
2018-12-05T06:10:31.481Z,0.00
2018-12-05T06:11:31.354Z,0.00
2018-12-05T06:12:31.671Z,0.00
2018-12-05T06:13:31.960Z,0.00
2018-12-05T06:14:32.234Z,0.00
2018-12-05T06:15:32.538Z,0.00
2018-12-05T06:16:32.858Z,0.00
2018-12-05T06:17:33.354Z,0.00
2018-12-05T06:18:33.907Z,0.00
2018-12-05T06:19:34.064Z,0.00
2018-12-05T06:20:34.216Z,0.00
2018-12-05T06:21:34.860Z,0.00
2018-12-05T06:22:34.566Z,0.00
2018-12-05T06:23:34.739Z,0.00
2018-12-05T06:24:34.855Z,0.00
2018-12-05T06:25:35.058Z,1.00
2018-12-05T06:26:35.182Z,1.00
2018-12-05T06:27:35.314Z,1.00
2018-12-05T06:28:35.470Z,1.00
2018-12-05T06:29:35.608Z,2.00
2018-12-05T06:30:35.811Z,2.00
2018-12-05T06:31:35.901Z,2.00
2018-12-05T06:32:36.040Z,2.00
2018-12-05T06:33:36.173Z,3.00
2018-12-05T06:34:36.242Z,3.00
2018-12-05T06:35:36.368Z,4.00
2018-12-05T06:36:36.449Z,5.00
2018-12-05T06:37:36.604Z,5.00
2018-12-05T06:38:36.699Z,6.00
2018-12-05T06:39:36.788Z,7.00
2018-12-05T06:40:36.935Z,8.00
2018-12-05T06:41:37.060Z,9.00
2018-12-05T06:42:37.172Z,250.00
2018-12-05T06:43:37.250Z,249.00
2018-12-05T06:44:37.374Z,249.00
2018-12-05T06:45:37.543Z,249.00
2018-12-05T06:46:37.640Z,249.00
2018-12-05T06:47:37.766Z,249.00
2018-12-05T06:48:37.846Z,65536.00
2018-12-05T06:49:37.958Z,65536.00
2018-12-05T06:50:38.082Z,65536.00
2018-12-05T06:51:38.180Z,65536.00
2018-12-05T06:52:38.288Z,65536.00
2018-12-05T06:53:38.397Z,65536.00
2018-12-05T06:54:38.483Z,65536.00
2018-12-05T06:55:39.280Z,65536.00
2018-12-05T06:56:38.791Z,65536.00
2018-12-05T06:57:38.887Z,65536.00
2018-12-05T06:58:38.956Z,65536.00
2018-12-05T06:59:38.964Z,65536.00
2018-12-05T07:00:39.163Z,65536.00
2018-12-05T07:01:39.130Z,65536.00
2018-12-05T07:02:39.422Z,65536.00
2018-12-05T07:03:39.728Z,65536.00
2018-12-05T07:04:40.256Z,65536.00
2018-12-05T07:05:40.206Z,65536.00
2018-12-05T07:06:40.664Z,65536.00
2018-12-05T07:07:41.068Z,65536.00
2018-12-05T07:08:41.394Z,65536.00
2018-12-05T07:09:42.029Z,65536.00
2018-12-05T07:10:41.952Z,65536.00
2018-12-05T07:11:42.260Z,65536.00
2018-12-05T07:13:43.016Z,249.00
2018-12-05T07:14:43.442Z,249.00
2018-12-05T07:15:43.757Z,249.00
2018-12-05T07:16:44.057Z,249.00
2018-12-05T07:17:44.347Z,249.00
2018-12-05T07:18:44.627Z,0.00
2018-12-05T07:19:44.924Z,470.00
2018-12-05T07:20:45.254Z,489.00
2018-12-05T07:21:45.586Z,505.00
2018-12-05T07:22:45.949Z,534.00
2018-12-05T07:23:46.202Z,551.00
2018-12-05T07:24:46.462Z,559.00
2018-12-05T07:25:46.763Z,566.00
2018-12-05T07:26:47.024Z,569.00
2018-12-05T07:27:47.290Z,577.00
2018-12-05T07:28:47.639Z,601.00
2018-12-05T07:29:48.153Z,651.00
2018-12-05T07:30:48.050Z,693.00
2018-12-05T07:31:48.692Z,731.00
2018-12-05T07:32:48.808Z,768.00
2018-12-05T07:33:48.947Z,806.00
2018-12-05T07:34:49.235Z,840.00
2018-12-05T07:35:49.468Z,868.00
2018-12-05T07:36:49.634Z,906.00
2018-12-05T07:37:49.764Z,955.00
2018-12-05T07:38:49.910Z,997.00
2018-12-05T07:40:50.196Z,1062.00
2018-12-05T07:41:50.347Z,1108.00
2018-12-05T07:42:50.496Z,1133.00
2018-12-05T07:43:50.626Z,1152.00
2018-12-05T07:44:50.784Z,1167.00
2018-12-05T07:45:50.921Z,1192.00
2018-12-05T07:46:51.008Z,1227.00
2018-12-05T07:47:51.096Z,1240.00
2018-12-05T07:48:51.355Z,1253.00
2018-12-05T07:49:51.475Z,1271.00
2018-12-05T07:50:51.571Z,1306.00
2018-12-05T07:51:51.662Z,1356.00
2018-12-05T07:52:51.806Z,1363.00
2018-12-05T07:53:51.919Z,1379.00
2018-12-05T07:54:52.061Z,1426.00
2018-12-05T07:55:52.312Z,1483.00
2018-12-05T07:56:52.338Z,1550.00
2018-12-05T07:57:52.413Z,1612.00
2018-12-05T07:58:52.479Z,1618.00
2018-12-05T07:59:52.596Z,1621.00
2018-12-05T08:00:52.706Z,1660.00
2018-12-05T08:01:52.890Z,1696.00
2018-12-05T08:02:52.965Z,1693.00
2018-12-05T08:03:53.041Z,1703.00
2018-12-05T08:04:53.109Z,1744.00
2018-12-05T08:05:53.202Z,1838.00
2018-12-05T08:06:53.270Z,1922.00
2018-12-05T08:07:53.357Z,1995.00
2018-12-05T08:08:53.439Z,2084.00
2018-12-05T08:10:53.637Z,2291.00
2018-12-05T08:11:53.677Z,2424.00
2018-12-05T08:12:53.761Z,2528.00
2018-12-05T08:13:53.985Z,2635.00
2018-12-05T08:14:53.980Z,2805.00
2018-12-05T08:15:54.544Z,3015.00
2018-12-05T08:16:54.528Z,3251.00
2018-12-05T08:17:54.833Z,3419.00
2018-12-05T08:18:55.282Z,3476.00
2018-12-05T08:19:55.677Z,3491.00
2018-12-05T08:20:55.991Z,3494.00
2018-12-05T08:21:56.326Z,3600.00
2018-12-05T08:22:56.792Z,3648.00
2018-12-05T08:23:57.101Z,3699.00
2018-12-05T08:24:57.380Z,3728.00
2018-12-05T08:25:57.694Z,3732.00
2018-12-05T08:26:58.064Z,3623.00
2018-12-05T08:27:58.457Z,3471.00
2018-12-05T08:28:58.761Z,3410.00
2018-12-05T08:29:59.087Z,3423.00
2018-12-05T08:30:59.399Z,3467.00
2018-12-05T08:31:59.662Z,3385.00
2018-12-05T08:32:59.994Z,3282.00
2018-12-05T08:34:00.519Z,3304.00
2018-12-05T08:35:00.340Z,3387.00
2018-12-05T08:36:00.672Z,3453.00
2018-12-05T08:37:01.252Z,3485.00
2018-12-05T08:38:01.329Z,3514.00
2018-12-05T08:39:01.367Z,3573.00
2018-12-05T08:40:01.604Z,3726.00
2018-12-05T08:41:01.395Z,3894.00
2018-12-05T08:42:01.923Z,4027.00
2018-12-05T08:43:02.042Z,4218.00
2018-12-05T08:44:02.094Z,4394.00
2018-12-05T08:45:02.265Z,4518.00
2018-12-05T08:46:02.419Z,4684.00
2018-12-05T08:47:02.419Z,4824.00
2018-12-05T08:48:02.512Z,4996.00
2018-12-05T08:49:02.538Z,5473.00
2018-12-05T08:50:02.634Z,7764.00
2018-12-05T08:51:03.009Z,7180.00
2018-12-05T08:52:02.744Z,7673.00
2018-12-05T08:53:03.363Z,9332.00
2018-12-05T08:54:03.498Z,9238.00
2018-12-05T08:55:03.623Z,7276.00
2018-12-05T08:56:03.774Z,4751.00
2018-12-05T08:57:03.895Z,4431.00
2018-12-05T08:58:04.059Z,4275.00
2018-12-05T08:59:04.208Z,4213.00
2018-12-05T09:00:04.402Z,4173.00
2018-12-05T09:01:04.524Z,4173.00
2018-12-05T09:02:05.143Z,4178.00
2018-12-05T09:03:05.302Z,4155.00
2018-12-05T09:04:05.470Z,4176.00
2018-12-05T09:05:05.612Z,4200.00
2018-12-05T09:06:05.788Z,4253.00
2018-12-05T09:07:05.930Z,4291.00
2018-12-05T09:08:06.063Z,4326.00
2018-12-05T09:09:06.213Z,4434.00
2018-12-05T09:10:06.332Z,4585.00
2018-12-05T09:11:06.506Z,4660.00
2018-12-05T09:12:06.693Z,4718.00
2018-12-05T09:13:06.809Z,4835.00
2018-12-05T09:14:06.960Z,4956.00
2018-12-05T09:15:07.261Z,4968.00
2018-12-05T09:16:07.208Z,4966.00
2018-12-05T09:17:07.324Z,5009.00
2018-12-05T09:18:07.394Z,5133.00
2018-12-05T09:19:07.327Z,5241.00
2018-12-05T09:20:07.787Z,5411.00
2018-12-05T09:21:08.358Z,5606.00
2018-12-05T09:22:08.414Z,5717.00
2018-12-05T09:23:08.520Z,5736.00
2018-12-05T09:24:08.639Z,5711.00
2018-12-05T09:25:08.731Z,5726.00
2018-12-05T09:26:08.686Z,5747.00
2018-12-05T09:27:08.851Z,5732.00
2018-12-05T09:28:08.961Z,5719.00
2018-12-05T09:29:08.964Z,5667.00
2018-12-05T09:30:09.082Z,5556.00
2018-12-05T09:31:09.155Z,5433.00
2018-12-05T09:32:08.898Z,5334.00
2018-12-05T09:33:09.416Z,5237.00
2018-12-05T09:34:10.097Z,5163.00
2018-12-05T09:35:10.153Z,5105.00
2018-12-05T09:36:09.932Z,5052.00
2018-12-05T09:37:10.264Z,5075.00
2018-12-05T09:38:10.538Z,5159.00
2018-12-05T09:39:11.072Z,5228.00
2018-12-05T09:40:11.060Z,5234.00
2018-12-05T09:41:11.430Z,5212.00
2018-12-05T09:42:11.761Z,5209.00
2018-12-05T09:43:12.184Z,5217.00
2018-12-05T09:44:12.457Z,5248.00
2018-12-05T09:45:12.852Z,5278.00
2018-12-05T09:46:13.146Z,5322.00
2018-12-05T09:47:16.020Z,5350.00
2018-12-05T09:48:13.727Z,5383.00
2018-12-05T09:49:13.984Z,5395.00
2018-12-05T09:50:14.307Z,5429.00
2018-12-05T09:51:14.630Z,5553.00
2018-12-05T09:52:14.938Z,5693.00
2018-12-05T09:53:15.292Z,5786.00
2018-12-05T09:54:15.597Z,5799.00
2018-12-05T09:55:16.263Z,5847.00
2018-12-05T09:56:16.075Z,5888.00
2018-12-05T09:57:16.365Z,5823.00
2018-12-05T09:58:16.711Z,5797.00
2018-12-05T09:59:17.132Z,5850.00
2018-12-05T10:00:17.706Z,5916.00
2018-12-05T10:01:17.492Z,5966.00
2018-12-05T10:02:17.818Z,5984.00
2018-12-05T10:03:18.313Z,5954.00
2018-12-05T10:04:18.935Z,5946.00
2018-12-05T10:05:19.059Z,5924.00
2018-12-05T10:06:19.194Z,5883.00
2018-12-05T10:07:19.369Z,5829.00
2018-12-05T10:08:19.520Z,5794.00
2018-12-05T10:09:19.698Z,5688.00
2018-12-05T10:10:19.835Z,5554.00
2018-12-05T10:11:19.994Z,5442.00
2018-12-05T10:12:20.155Z,5423.00
2018-12-05T10:13:20.325Z,5502.00
2018-12-05T10:14:20.472Z,5626.00
2018-12-05T10:15:20.634Z,6016.00
2018-12-05T10:16:20.817Z,5916.00
2018-12-05T10:17:20.950Z,5857.00
2018-12-05T10:18:21.007Z,5912.00
2018-12-05T10:19:21.082Z,5993.00
2018-12-05T10:20:21.182Z,6081.00
2018-12-05T10:21:21.267Z,6111.00
2018-12-05T10:22:21.345Z,6113.00
2018-12-05T10:23:21.416Z,6104.00
2018-12-05T10:24:21.571Z,6058.00
2018-12-05T10:25:21.669Z,6036.00
2018-12-05T10:26:21.778Z,6044.00
2018-12-05T10:27:21.881Z,6066.00
2018-12-05T10:28:21.976Z,6067.00
2018-12-05T10:29:22.103Z,6058.00
2018-12-05T10:30:22.176Z,6044.00
2018-12-05T10:31:22.276Z,5993.00
2018-12-05T10:32:22.345Z,5930.00
2018-12-05T10:33:22.450Z,5862.00
2018-12-05T10:34:22.548Z,5809.00
2018-12-05T10:35:22.673Z,5743.00
2018-12-05T10:37:22.767Z,5787.00
2018-12-05T10:38:22.853Z,5882.00
2018-12-05T10:39:22.937Z,6004.00
2018-12-05T10:40:23.002Z,6111.00
2018-12-05T10:41:23.154Z,6190.00
2018-12-05T10:42:23.248Z,6218.00
2018-12-05T10:43:23.324Z,6168.00
2018-12-05T10:44:23.481Z,6076.00
2018-12-05T10:45:23.678Z,5984.00
2018-12-05T10:46:23.776Z,5867.00
2018-12-05T10:47:23.508Z,5668.00
2018-12-05T10:48:24.085Z,5424.00
2018-12-05T10:49:24.008Z,5229.00
2018-12-05T10:50:24.261Z,5095.00
2018-12-05T10:51:24.530Z,5004.00
2018-12-05T10:52:24.794Z,4910.00
2018-12-05T10:53:25.068Z,4836.00
2018-12-05T10:54:25.419Z,4753.00
2018-12-05T10:55:25.744Z,4681.00
2018-12-05T10:56:26.022Z,4598.00
2018-12-05T10:57:26.349Z,4501.00
2018-12-05T10:58:26.683Z,4518.00
2018-12-05T10:59:26.989Z,4575.00
2018-12-05T11:00:27.263Z,4649.00
2018-12-05T11:01:27.695Z,4676.00
2018-12-05T11:02:28.138Z,4592.00
2018-12-05T11:03:28.762Z,4487.00
2018-12-05T11:04:29.184Z,4484.00
2018-12-05T11:05:29.138Z,4429.00
2018-12-05T11:06:29.548Z,4343.00
2018-12-05T11:07:29.979Z,4245.00
2018-12-05T11:08:30.461Z,4206.00
2018-12-05T11:09:30.410Z,4203.00
2018-12-05T11:10:30.852Z,4225.00
2018-12-05T11:11:31.526Z,4194.00
2018-12-05T11:12:31.454Z,4153.00
2018-12-05T11:13:32.132Z,4081.00
2018-12-05T11:14:32.273Z,3936.00
2018-12-05T11:15:32.213Z,3815.00
2018-12-05T11:16:32.628Z,3773.00
2018-12-05T11:17:32.669Z,3803.00
2018-12-05T11:18:33.016Z,3837.00
2018-12-05T11:19:33.613Z,3864.00
2018-12-05T11:20:33.902Z,3876.00
2018-12-05T11:21:34.200Z,3896.00
2018-12-05T11:22:34.450Z,3882.00
2018-12-05T11:23:34.724Z,3841.00
2018-12-05T11:24:34.992Z,3786.00
2018-12-05T11:25:35.187Z,3777.00
2018-12-05T11:26:35.400Z,3756.00
2018-12-05T11:27:35.702Z,3654.00
2018-12-05T11:28:35.767Z,3582.00
2018-12-05T11:29:35.871Z,3525.00
2018-12-05T11:30:35.964Z,3457.00
2018-12-05T11:32:36.052Z,3355.00
2018-12-05T11:33:36.118Z,3378.00
2018-12-05T11:34:36.187Z,3341.00
2018-12-05T11:35:36.343Z,3322.00
2018-12-05T11:36:36.370Z,3331.00
2018-12-05T11:37:36.484Z,3351.00
2018-12-05T11:38:36.585Z,3406.00
2018-12-05T11:39:36.771Z,3481.00
2018-12-05T11:40:36.887Z,3579.00
2018-12-05T11:41:36.994Z,3615.00
2018-12-05T11:42:37.195Z,3610.00
2018-12-05T11:43:37.320Z,3639.00
2018-12-05T11:44:37.439Z,3628.00
2018-12-05T11:45:37.521Z,3673.00
2018-12-05T11:46:37.630Z,3700.00
2018-12-05T11:47:37.709Z,3730.00
2018-12-05T11:48:37.791Z,3737.00
2018-12-05T11:49:37.912Z,3785.00
2018-12-05T11:50:37.682Z,3825.00
2018-12-05T11:51:38.282Z,3840.00
2018-12-05T11:52:38.371Z,3806.00
2018-12-05T11:53:38.452Z,3761.00
2018-12-05T11:54:38.613Z,3662.00
2018-12-05T11:55:38.888Z,3569.00
2018-12-05T11:56:39.029Z,3564.00
2018-12-05T11:57:39.085Z,3589.00
2018-12-05T11:58:39.138Z,3606.00
2018-12-05T11:59:39.265Z,3562.00
2018-12-05T12:00:39.093Z,3492.00
2018-12-05T12:01:39.553Z,3451.00
2018-12-05T12:02:39.841Z,3447.00
2018-12-05T12:03:40.161Z,3523.00
2018-12-05T12:04:40.649Z,3644.00
2018-12-05T12:05:40.491Z,3791.00
2018-12-05T12:06:40.836Z,3872.00
2018-12-05T12:07:41.118Z,3945.00
2018-12-05T12:08:41.613Z,3961.00
2018-12-05T12:09:42.259Z,3959.00
2018-12-05T12:10:42.156Z,3922.00
2018-12-05T12:11:42.656Z,3880.00
2018-12-05T12:12:42.968Z,3785.00
2018-12-05T12:13:43.433Z,3675.00
2018-12-05T12:14:43.719Z,3625.00
2018-12-05T12:15:44.078Z,3597.00
2018-12-05T12:16:44.346Z,3611.00
2018-12-05T12:17:44.648Z,3593.00
2018-12-05T12:18:44.944Z,3641.00
2018-12-05T12:19:45.239Z,3785.00
2018-12-05T12:20:45.663Z,4026.00
2018-12-05T12:21:45.947Z,4258.00
2018-12-05T12:22:46.243Z,4405.00
2018-12-05T12:23:46.509Z,4454.00
2018-12-05T12:24:46.803Z,4385.00
2018-12-05T12:25:47.136Z,4376.00
2018-12-05T12:26:47.705Z,4373.00
2018-12-05T12:27:47.539Z,4267.00
2018-12-05T12:28:48.163Z,4060.00
2018-12-05T12:29:48.180Z,3839.00
2018-12-05T12:30:48.753Z,3636.00
2018-12-05T12:31:48.877Z,3496.00
2018-12-05T12:32:49.033Z,3415.00
2018-12-05T12:33:49.172Z,3367.00
2018-12-05T12:34:49.307Z,3309.00
2018-12-05T12:35:49.466Z,3316.00
2018-12-05T12:36:49.629Z,3330.00
2018-12-05T12:37:49.811Z,3334.00
2018-12-05T12:38:49.945Z,3233.00
2018-12-05T12:39:50.170Z,3140.00
2018-12-05T12:40:50.415Z,3094.00
2018-12-05T12:41:50.627Z,3072.00
2018-12-05T12:42:50.839Z,3084.00
2018-12-05T12:43:50.960Z,3084.00
2018-12-05T12:44:51.178Z,3107.00
2018-12-05T12:45:51.357Z,3135.00
2018-12-05T12:46:51.491Z,3170.00
2018-12-05T12:47:51.692Z,3147.00
2018-12-05T12:48:51.848Z,3179.00
2018-12-05T12:49:52.344Z,3244.00
2018-12-05T12:50:52.466Z,3322.00